createdAt,value
2018-11-26T00:00:24.114Z,84.20
2018-11-26T00:01:29.643Z,109.20
2018-11-26T00:02:35.224Z,104.20
2018-11-26T00:03:40.783Z,95.33
2018-11-26T00:04:46.286Z,102.67
2018-11-26T00:05:51.821Z,103.70
2018-11-26T00:06:57.350Z,114.17
2018-11-26T00:08:02.866Z,119.20
2018-11-26T00:09:09.354Z,107.97
2018-11-26T00:11:29.330Z,104.40
2018-11-26T00:12:34.850Z,103.63
2018-11-26T00:13:40.351Z,104.90
2018-11-26T00:14:45.889Z,110.50
2018-11-26T00:15:51.453Z,113.03
2018-11-26T00:16:57.175Z,99.10
2018-11-26T00:18:02.657Z,115.50
2018-11-26T00:19:08.349Z,102.57
2018-11-26T00:20:13.969Z,123.28
2018-11-26T00:21:19.439Z,110.17
2018-11-26T00:22:24.917Z,93.50
2018-11-26T00:23:30.394Z,100.00
2018-11-26T00:24:35.967Z,99.53
2018-11-26T00:25:41.680Z,85.07
2018-11-26T00:26:47.200Z,103.23
2018-11-26T00:27:53.133Z,114.40
2018-11-26T00:28:58.638Z,95.03
2018-11-26T00:30:04.188Z,100.10
2018-11-26T00:31:09.697Z,112.30
2018-11-26T00:32:15.167Z,105.10
2018-11-26T00:33:20.707Z,106.20
2018-11-26T00:34:26.209Z,110.50
2018-11-26T00:35:31.642Z,101.27
2018-11-26T00:36:37.200Z,92.40
2018-11-26T00:37:42.746Z,99.23
2018-11-26T00:38:48.209Z,103.60
2018-11-26T00:39:53.778Z,98.10
2018-11-26T00:40:59.193Z,111.03
2018-11-26T00:42:04.794Z,119.60
2018-11-26T00:43:10.216Z,94.80
2018-11-26T00:44:15.658Z,98.57
2018-11-26T00:45:21.212Z,106.33
2018-11-26T00:46:26.686Z,130.77
2018-11-26T00:47:32.214Z,104.07
2018-11-26T00:48:37.749Z,100.00
2018-11-26T00:49:43.181Z,112.17
2018-11-26T00:50:48.713Z,105.13
2018-11-26T00:51:54.179Z,107.67
2018-11-26T00:52:59.637Z,98.80
2018-11-26T00:54:05.235Z,113.87
2018-11-26T00:55:11.943Z,102.33
2018-11-26T00:56:17.450Z,92.03
2018-11-26T00:57:22.895Z,78.63
2018-11-26T00:58:28.377Z,92.60
2018-11-26T00:59:34.058Z,115.17
2018-11-26T01:00:39.485Z,97.57
2018-11-26T01:01:45.022Z,104.07
2018-11-26T01:02:50.513Z,94.87
2018-11-26T01:03:56.034Z,102.33
2018-11-26T01:05:01.663Z,105.53
2018-11-26T01:06:07.246Z,118.73
2018-11-26T01:07:12.774Z,79.77
2018-11-26T01:08:18.304Z,109.10
2018-11-26T01:09:23.765Z,95.83
2018-11-26T01:10:29.198Z,110.20
2018-11-26T01:11:34.694Z,104.53
2018-11-26T01:12:40.187Z,111.00
2018-11-26T01:13:45.712Z,110.93
2018-11-26T01:14:51.219Z,118.87
2018-11-26T01:15:56.805Z,101.73
2018-11-26T01:17:02.348Z,105.37
2018-11-26T01:18:08.180Z,114.93
2018-11-26T01:19:13.619Z,108.77
2018-11-26T01:20:19.074Z,106.73
2018-11-26T01:21:24.677Z,116.57
2018-11-26T01:22:30.226Z,107.30
2018-11-26T01:23:35.709Z,112.03
2018-11-26T01:24:41.135Z,111.20
2018-11-26T01:25:46.623Z,105.47
2018-11-26T01:26:52.026Z,103.03
2018-11-26T01:27:57.561Z,108.90
2018-11-26T01:29:03.147Z,100.07
2018-11-26T01:30:10.221Z,114.20
2018-11-26T01:31:15.734Z,110.10
2018-11-26T01:32:21.175Z,102.07
2018-11-26T01:33:26.640Z,112.37
2018-11-26T01:34:32.102Z,105.93
2018-11-26T01:35:37.656Z,111.77
2018-11-26T01:36:43.148Z,98.30
2018-11-26T01:37:48.546Z,110.23
2018-11-26T01:38:54.670Z,97.13
2018-11-26T01:40:00.204Z,99.40
2018-11-26T01:41:05.738Z,113.07
2018-11-26T01:42:11.238Z,118.50
2018-11-26T01:43:17.038Z,109.07
2018-11-26T01:44:22.582Z,110.03
2018-11-26T01:45:28.178Z,103.23
2018-11-26T01:46:33.666Z,111.70
2018-11-26T01:47:39.360Z,102.90
2018-11-26T01:48:44.792Z,122.70
2018-11-26T01:49:50.237Z,112.97
2018-11-26T01:50:55.800Z,107.90
2018-11-26T01:52:01.302Z,102.67
2018-11-26T01:53:08.134Z,117.40
2018-11-26T01:54:13.537Z,94.30
2018-11-26T01:55:19.091Z,124.03
2018-11-26T01:56:24.582Z,108.47
2018-11-26T01:57:30.258Z,119.83
2018-11-26T01:58:35.806Z,107.63
2018-11-26T01:59:41.255Z,103.07
2018-11-26T02:00:46.784Z,124.23
2018-11-26T02:01:52.192Z,106.17
2018-11-26T02:02:57.726Z,118.40
2018-11-26T02:04:03.382Z,111.50
2018-11-26T02:05:08.978Z,108.37
2018-11-26T02:06:14.498Z,120.40
2018-11-26T02:07:20.051Z,119.87
2018-11-26T02:08:25.635Z,119.80
2018-11-26T02:09:31.122Z,101.27
2018-11-26T02:10:36.756Z,124.37
2018-11-26T02:11:42.158Z,102.03
2018-11-26T02:12:47.760Z,106.30
2018-11-26T02:13:53.334Z,121.73
2018-11-26T02:14:58.879Z,121.40
2018-11-26T02:16:04.346Z,116.53
2018-11-26T02:17:09.947Z,127.43
2018-11-26T02:18:15.483Z,120.27
2018-11-26T02:19:21.041Z,122.40
2018-11-26T02:20:26.544Z,116.93
2018-11-26T02:21:32.253Z,119.33
2018-11-26T02:22:38.143Z,128.83
2018-11-26T02:23:43.569Z,119.73
2018-11-26T02:24:49.211Z,102.07
2018-11-26T02:25:54.697Z,124.03
2018-11-26T02:27:00.284Z,122.43
2018-11-26T02:28:06.011Z,121.67
2018-11-26T02:29:11.571Z,121.33
2018-11-26T02:30:17.165Z,116.30
2018-11-26T02:31:22.738Z,113.33
2018-11-26T02:32:28.209Z,108.83
2018-11-26T02:33:33.819Z,125.00
2018-11-26T02:34:39.343Z,114.70
2018-11-26T02:35:44.867Z,118.07
2018-11-26T02:36:50.436Z,114.43
2018-11-26T02:37:55.957Z,111.50
2018-11-26T02:39:01.490Z,148.40
2018-11-26T02:40:10.846Z,122.77
2018-11-26T02:41:16.402Z,119.20
2018-11-26T02:42:21.963Z,116.27
2018-11-26T02:43:27.414Z,125.57
2018-11-26T02:44:32.984Z,119.23
2018-11-26T02:45:38.458Z,132.43
2018-11-26T02:46:43.944Z,131.93
2018-11-26T02:47:49.479Z,118.60
2018-11-26T02:48:54.952Z,120.63
2018-11-26T02:50:00.461Z,119.63
2018-11-26T02:51:06.259Z,115.57
2018-11-26T02:52:11.820Z,117.90
2018-11-26T02:53:17.323Z,127.67
2018-11-26T02:54:22.850Z,117.93
2018-11-26T02:55:28.347Z,127.13
2018-11-26T02:56:33.843Z,103.93
2018-11-26T02:57:39.353Z,116.20
2018-11-26T02:58:44.817Z,106.33
2018-11-26T02:59:50.242Z,115.67
2018-11-26T03:00:55.738Z,118.30
2018-11-26T03:02:01.285Z,119.17
2018-11-26T03:03:07.198Z,121.30
2018-11-26T03:04:16.246Z,135.63
2018-11-26T03:05:30.483Z,111.47
2018-11-26T03:06:36.170Z,103.77
2018-11-26T03:07:41.781Z,118.20
2018-11-26T03:08:47.265Z,126.43
2018-11-26T03:09:52.772Z,122.77
2018-11-26T03:10:58.250Z,111.37
2018-11-26T03:12:03.759Z,119.93
2018-11-26T03:13:09.337Z,118.13
2018-11-26T03:14:14.801Z,114.37
2018-11-26T03:15:20.533Z,120.67
2018-11-26T03:16:26.100Z,105.77
2018-11-26T03:17:31.600Z,117.77
2018-11-26T03:18:37.287Z,119.80
2018-11-26T03:19:42.826Z,110.60
2018-11-26T03:20:48.338Z,137.93
2018-11-26T03:21:53.770Z,114.53
2018-11-26T03:22:59.236Z,132.37
2018-11-26T03:24:04.718Z,125.80
2018-11-26T03:25:11.712Z,108.70
2018-11-26T03:26:17.174Z,117.40
2018-11-26T03:27:22.727Z,127.87
2018-11-26T03:28:28.286Z,129.50
2018-11-26T03:29:33.811Z,119.07
2018-11-26T03:30:39.328Z,112.00
2018-11-26T03:31:44.779Z,106.57
2018-11-26T03:32:50.444Z,139.13
2018-11-26T03:33:56.067Z,124.80
2018-11-26T03:35:01.702Z,121.40
2018-11-26T03:36:07.664Z,112.13
2018-11-26T03:37:13.189Z,118.73
2018-11-26T03:39:00.706Z,127.07
2018-11-26T03:40:09.869Z,117.37
2018-11-26T03:41:15.274Z,116.67
2018-11-26T03:42:21.002Z,114.77
2018-11-26T03:43:26.537Z,128.90
2018-11-26T03:44:32.058Z,131.27
2018-11-26T03:45:37.802Z,118.10
2018-11-26T03:46:43.320Z,140.60
2018-11-26T03:47:48.886Z,106.83
2018-11-26T03:48:54.536Z,139.00
2018-11-26T03:50:00.175Z,119.13
2018-11-26T03:51:05.955Z,123.50
2018-11-26T03:52:11.430Z,141.43
2018-11-26T03:53:16.919Z,143.77
2018-11-26T03:54:22.450Z,116.33
2018-11-26T03:55:27.902Z,112.77
2018-11-26T03:56:33.624Z,120.20
2018-11-26T03:57:39.246Z,112.60
2018-11-26T03:58:44.850Z,134.67
2018-11-26T03:59:50.341Z,110.13
2018-11-26T04:00:55.890Z,109.67
2018-11-26T04:02:01.606Z,127.00
2018-11-26T04:03:07.064Z,120.80
2018-11-26T04:04:12.509Z,125.63
2018-11-26T04:05:18.065Z,113.23
2018-11-26T04:06:23.590Z,113.40
2018-11-26T04:07:29.179Z,110.63
2018-11-26T04:08:34.666Z,132.07
2018-11-26T04:09:40.084Z,119.07
2018-11-26T04:10:45.610Z,102.13
2018-11-26T04:11:51.091Z,114.63
2018-11-26T04:12:56.526Z,110.90
2018-11-26T04:14:01.945Z,122.00
2018-11-26T04:15:10.122Z,136.67
2018-11-26T04:16:15.684Z,107.63
2018-11-26T04:17:21.074Z,104.40
2018-11-26T04:18:26.498Z,102.80
2018-11-26T04:19:32.084Z,110.50
2018-11-26T04:20:37.599Z,123.90
2018-11-26T04:21:43.214Z,117.07
2018-11-26T04:22:48.682Z,116.30
2018-11-26T04:23:54.418Z,119.43
2018-11-26T04:24:59.841Z,120.77
2018-11-26T04:26:05.399Z,125.83
2018-11-26T04:27:10.870Z,102.90
2018-11-26T04:28:16.386Z,121.27
2018-11-26T04:29:21.851Z,107.10
2018-11-26T04:30:27.388Z,109.50
2018-11-26T04:31:32.816Z,111.70
2018-11-26T04:32:39.282Z,107.27
2018-11-26T04:33:44.848Z,107.43
2018-11-26T04:34:50.408Z,111.43
2018-11-26T04:35:56.133Z,100.33
2018-11-26T04:37:01.680Z,112.90
2018-11-26T04:38:07.362Z,108.50
2018-11-26T04:39:12.766Z,101.97
2018-11-26T04:40:18.186Z,109.60
2018-11-26T04:41:23.588Z,108.67
2018-11-26T04:42:29.079Z,107.50
2018-11-26T04:43:34.635Z,101.80
2018-11-26T04:44:40.957Z,122.10
2018-11-26T04:45:46.412Z,104.80
2018-11-26T04:46:53.577Z,105.50
2018-11-26T04:47:59.045Z,102.23
2018-11-26T04:49:04.850Z,120.57
2018-11-26T04:50:13.072Z,101.77
2018-11-26T04:51:18.658Z,123.60
2018-11-26T04:52:24.097Z,99.33
2018-11-26T04:53:29.719Z,118.90
2018-11-26T04:54:35.295Z,113.03
2018-11-26T04:55:40.810Z,110.70
2018-11-26T04:56:46.421Z,115.03
2018-11-26T04:57:51.836Z,108.50
2018-11-26T04:58:57.262Z,97.27
2018-11-26T05:00:02.787Z,83.67
2018-11-26T05:01:08.288Z,108.50
2018-11-26T05:02:13.814Z,106.10
2018-11-26T05:03:19.338Z,110.70
2018-11-26T05:04:24.783Z,103.90
2018-11-26T05:05:30.390Z,108.13
2018-11-26T05:06:35.930Z,113.70
2018-11-26T05:07:41.407Z,100.10
2018-11-26T05:08:46.870Z,99.27
2018-11-26T05:09:52.299Z,103.07
2018-11-26T05:10:57.757Z,105.17
2018-11-26T05:12:03.351Z,108.97
2018-11-26T05:13:08.827Z,105.07
2018-11-26T05:14:14.490Z,115.50
2018-11-26T05:15:20.035Z,99.83
2018-11-26T05:16:25.566Z,99.60
2018-11-26T05:17:31.077Z,126.63
2018-11-26T05:18:36.530Z,97.70
2018-11-26T05:19:42.151Z,93.17
2018-11-26T05:20:47.634Z,106.40
2018-11-26T05:21:53.227Z,102.23
2018-11-26T05:22:58.690Z,99.60
2018-11-26T05:24:04.138Z,102.50
2018-11-26T05:25:11.185Z,103.83
2018-11-26T05:26:16.695Z,95.47
2018-11-26T05:27:22.086Z,93.37
2018-11-26T05:28:27.525Z,85.00
2018-11-26T05:29:32.958Z,99.10
2018-11-26T05:30:38.412Z,100.13
2018-11-26T05:31:43.977Z,84.73
2018-11-26T05:32:49.618Z,104.73
2018-11-26T05:33:55.138Z,89.50
2018-11-26T05:35:00.637Z,102.67
2018-11-26T05:36:06.279Z,106.60
2018-11-26T05:37:11.807Z,106.70
2018-11-26T05:38:17.594Z,102.57
2018-11-26T05:39:23.258Z,100.13
2018-11-26T05:40:28.690Z,112.40
2018-11-26T05:41:34.230Z,98.17
2018-11-26T05:42:40.015Z,90.13
2018-11-26T05:43:45.536Z,97.40
2018-11-26T05:44:51.103Z,82.70
2018-11-26T05:45:56.615Z,94.10
2018-11-26T05:47:02.106Z,92.47
2018-11-26T05:48:07.698Z,96.63
2018-11-26T05:49:13.472Z,88.37
2018-11-26T05:50:19.027Z,88.10
2018-11-26T05:51:24.617Z,90.33
2018-11-26T05:52:30.067Z,85.57
2018-11-26T05:53:35.506Z,96.90
2018-11-26T05:54:40.972Z,111.33
2018-11-26T05:55:46.455Z,88.13
2018-11-26T05:56:52.021Z,76.47
2018-11-26T05:57:57.470Z,104.73
2018-11-26T05:59:02.906Z,84.73
2018-11-26T06:00:21.719Z,90.30
2018-11-26T06:01:27.202Z,86.27
2018-11-26T06:02:32.668Z,80.47
2018-11-26T06:03:38.310Z,81.63
2018-11-26T06:04:43.821Z,85.30
2018-11-26T06:05:49.376Z,86.97
2018-11-26T06:06:55.008Z,98.90
2018-11-26T06:08:00.441Z,88.80
2018-11-26T06:09:09.543Z,80.10
2018-11-26T06:10:15.081Z,82.07
2018-11-26T06:11:20.639Z,82.93
2018-11-26T06:12:26.169Z,78.60
2018-11-26T06:13:31.718Z,84.37
2018-11-26T06:14:37.183Z,89.63
2018-11-26T06:15:42.748Z,82.33
2018-11-26T06:16:53.472Z,94.70
2018-11-26T06:17:53.837Z,96.27
2018-11-26T06:18:59.290Z,83.97
2018-11-26T06:20:05.727Z,85.67
2018-11-26T06:21:11.159Z,84.43
2018-11-26T06:22:16.597Z,77.17
2018-11-26T06:23:22.131Z,89.40
2018-11-26T06:24:27.962Z,92.77
2018-11-26T06:25:33.446Z,82.33
2018-11-26T06:26:39.030Z,75.30
2018-11-26T06:27:45.119Z,96.10
2018-11-26T06:28:50.579Z,84.60
2018-11-26T06:29:55.999Z,85.53
2018-11-26T06:31:01.424Z,93.17
2018-11-26T06:32:06.906Z,96.10
2018-11-26T06:33:12.412Z,97.37
2018-11-26T06:34:17.995Z,87.83
2018-11-26T06:35:24.317Z,85.60
2018-11-26T06:37:32.906Z,79.67
2018-11-26T06:38:38.414Z,81.50
2018-11-26T06:39:43.959Z,88.37
2018-11-26T06:40:49.514Z,91.53
2018-11-26T06:41:55.028Z,100.20
2018-11-26T06:43:00.462Z,105.90
2018-11-26T06:44:07.515Z,84.87
2018-11-26T06:45:20.029Z,91.00
2018-11-26T06:46:25.443Z,94.53
2018-11-26T06:47:30.944Z,98.73
2018-11-26T06:48:37.183Z,90.33
2018-11-26T06:49:42.788Z,92.67
2018-11-26T06:50:48.452Z,99.63
2018-11-26T06:51:53.935Z,90.87
2018-11-26T06:52:59.479Z,101.93
2018-11-26T06:54:04.956Z,101.70
2018-11-26T06:55:13.910Z,92.20
2018-11-26T06:56:19.423Z,86.97
2018-11-26T06:57:24.935Z,97.37
2018-11-26T06:58:30.444Z,104.13
2018-11-26T06:59:36.007Z,89.47
2018-11-26T07:00:41.532Z,91.77
2018-11-26T07:01:47.116Z,81.03
2018-11-26T07:02:52.630Z,88.30
2018-11-26T07:03:58.153Z,111.07
2018-11-26T07:05:04.154Z,81.90
2018-11-26T07:06:09.699Z,102.23
2018-11-26T07:07:15.413Z,80.83
2018-11-26T07:08:20.820Z,81.90
2018-11-26T07:09:26.262Z,87.77
2018-11-26T07:10:31.711Z,91.70
2018-11-26T07:11:37.497Z,87.77
2018-11-26T07:12:43.278Z,78.57
2018-11-26T07:13:48.736Z,88.43
2018-11-26T07:14:54.273Z,103.80
2018-11-26T07:15:59.678Z,93.87
2018-11-26T07:17:05.229Z,87.00
2018-11-26T07:18:10.801Z,92.00
2018-11-26T07:19:16.239Z,92.77
2018-11-26T07:20:22.732Z,90.93
2018-11-26T07:21:28.190Z,92.97
2018-11-26T07:22:33.718Z,76.23
2018-11-26T07:23:39.153Z,89.73
2018-11-26T07:24:44.749Z,80.00
2018-11-26T07:25:50.239Z,89.27
2018-11-26T07:26:55.818Z,91.33
2018-11-26T07:28:01.302Z,89.43
2018-11-26T07:29:06.915Z,81.93
2018-11-26T07:30:17.926Z,90.50
2018-11-26T07:31:23.342Z,84.53
2018-11-26T07:32:28.855Z,88.00
2018-11-26T07:33:34.442Z,93.37
2018-11-26T07:34:40.414Z,82.12
2018-11-26T07:35:46.005Z,95.33
2018-11-26T07:36:51.402Z,95.17
2018-11-26T07:37:56.911Z,87.03
2018-11-26T07:39:02.435Z,89.17
2018-11-26T07:40:18.682Z,92.93
2018-11-26T07:41:24.329Z,89.90
2018-11-26T07:42:29.747Z,85.60
2018-11-26T07:43:35.282Z,106.33
2018-11-26T07:44:40.829Z,89.57
2018-11-26T07:45:46.323Z,76.33
2018-11-26T07:46:51.837Z,97.20
2018-11-26T07:47:57.514Z,90.53
2018-11-26T07:49:03.003Z,102.70
2018-11-26T07:50:15.217Z,95.57
2018-11-26T07:51:20.766Z,92.60
2018-11-26T07:52:26.257Z,100.60
2018-11-26T07:53:31.793Z,96.33
2018-11-26T07:54:37.247Z,101.27
2018-11-26T07:55:43.049Z,101.07
2018-11-26T07:56:48.588Z,92.00
2018-11-26T07:57:54.153Z,100.97
2018-11-26T07:58:59.642Z,86.70
2018-11-26T08:00:11.539Z,92.73
2018-11-26T08:01:17.162Z,94.53
2018-11-26T08:02:22.595Z,92.43
2018-11-26T08:03:28.072Z,95.97
2018-11-26T08:04:33.574Z,98.73
2018-11-26T08:05:39.018Z,95.70
2018-11-26T08:06:44.637Z,88.70
2018-11-26T08:07:50.129Z,107.93
2018-11-26T08:08:55.595Z,92.83
2018-11-26T08:10:01.117Z,90.90
2018-11-26T08:11:08.113Z,98.43
2018-11-26T08:12:13.611Z,83.90
2018-11-26T08:13:19.287Z,99.73
2018-11-26T08:14:24.784Z,77.67
2018-11-26T08:15:30.331Z,93.93
2018-11-26T08:16:38.252Z,88.90
2018-11-26T08:17:43.972Z,94.97
2018-11-26T08:18:50.788Z,89.07
2018-11-26T08:19:56.683Z,91.73
2018-11-26T08:21:02.138Z,86.60
2018-11-26T08:22:07.680Z,96.47
2018-11-26T08:23:13.155Z,76.60
2018-11-26T08:24:18.823Z,87.87
2018-11-26T08:25:24.962Z,81.93
2018-11-26T08:26:30.495Z,88.77
2018-11-26T08:27:35.982Z,84.47
2018-11-26T08:28:41.564Z,77.30
2018-11-26T08:29:47.143Z,82.20
2018-11-26T08:30:52.672Z,94.57
2018-11-26T08:31:58.143Z,74.43
2018-11-26T08:33:04.035Z,88.10
2018-11-26T08:34:09.577Z,77.47
2018-11-26T08:35:16.718Z,78.33
2018-11-26T08:36:27.370Z,86.40
2018-11-26T08:37:33.870Z,77.83
2018-11-26T08:38:44.424Z,79.17
2018-11-26T08:39:56.534Z,85.00
2018-11-26T08:41:07.371Z,79.13
2018-11-26T08:42:18.152Z,77.47
2018-11-26T08:43:28.864Z,74.50
2018-11-26T08:44:39.746Z,83.87
2018-11-26T08:45:54.054Z,75.23
2018-11-26T08:47:04.035Z,65.30
2018-11-26T08:48:15.979Z,71.53
2018-11-26T08:49:26.642Z,72.70
2018-11-26T08:50:32.165Z,75.33
2018-11-26T08:51:37.712Z,66.63
2018-11-26T08:52:43.270Z,79.30
2018-11-26T08:53:48.834Z,66.67
2018-11-26T08:54:54.282Z,70.30
2018-11-26T08:55:59.787Z,76.83
2018-11-26T08:57:05.183Z,74.23
2018-11-26T08:58:10.617Z,77.83
2018-11-26T08:59:16.166Z,60.10
2018-11-26T09:00:21.578Z,67.57
2018-11-26T09:01:32.359Z,68.63
2018-11-26T09:02:43.023Z,64.77
2018-11-26T09:03:53.421Z,66.40
2018-11-26T09:05:04.890Z,76.50
2018-11-26T09:06:10.446Z,76.80
2018-11-26T09:07:16.131Z,81.87
2018-11-26T09:08:21.627Z,69.53
2018-11-26T09:09:32.808Z,67.30
2018-11-26T09:10:32.619Z,72.50
2018-11-26T09:11:39.028Z,71.73
2018-11-26T09:12:44.586Z,71.83
2018-11-26T09:13:50.137Z,68.40
2018-11-26T09:14:55.658Z,60.73
2018-11-26T09:16:01.211Z,66.10
2018-11-26T09:17:06.861Z,64.90
2018-11-26T09:18:12.499Z,67.80
2018-11-26T09:19:18.206Z,64.67
2018-11-26T09:20:23.661Z,65.00
2018-11-26T09:21:29.099Z,64.67
2018-11-26T09:22:34.679Z,58.43
2018-11-26T09:23:40.190Z,64.17
2018-11-26T09:24:45.635Z,59.87
2018-11-26T09:25:51.086Z,78.13
2018-11-26T09:26:56.606Z,63.30
2018-11-26T09:28:02.186Z,78.90
2018-11-26T09:29:08.034Z,65.50
2018-11-26T09:30:15.538Z,59.00
2018-11-26T09:31:20.956Z,61.23
2018-11-26T09:32:26.455Z,57.83
2018-11-26T09:33:31.899Z,56.67
2018-11-26T09:34:37.363Z,59.30
2018-11-26T09:35:42.913Z,61.80
2018-11-26T09:36:48.495Z,58.60
2018-11-26T09:37:53.990Z,66.63
2018-11-26T09:38:59.456Z,65.90
2018-11-26T09:40:05.942Z,51.93
2018-11-26T09:41:11.849Z,62.83
2018-11-26T09:42:17.429Z,55.47
2018-11-26T09:43:22.943Z,62.97
2018-11-26T09:44:28.484Z,55.73
2018-11-26T09:45:40.067Z,65.27
2018-11-26T09:46:39.628Z,61.57
2018-11-26T09:47:45.364Z,62.67
2018-11-26T09:48:50.855Z,63.70
2018-11-26T09:49:57.096Z,59.33
2018-11-26T09:51:02.567Z,56.77
2018-11-26T09:52:08.169Z,48.57
2018-11-26T09:53:13.570Z,58.73
2018-11-26T09:54:25.836Z,56.13
2018-11-26T09:55:24.571Z,63.47
2018-11-26T09:56:30.122Z,54.03
2018-11-26T09:57:35.643Z,53.93
2018-11-26T09:58:41.231Z,54.77
2018-11-26T09:59:46.676Z,57.47
2018-11-26T10:00:52.142Z,51.83
2018-11-26T10:01:57.645Z,55.80
2018-11-26T10:03:03.185Z,54.93
2018-11-26T10:04:08.638Z,48.40
2018-11-26T10:05:18.196Z,59.10
2018-11-26T10:06:23.620Z,60.03
2018-11-26T10:07:29.151Z,51.23
2018-11-26T10:08:34.813Z,44.83
2018-11-26T10:09:40.279Z,52.73
2018-11-26T10:10:45.778Z,52.60
2018-11-26T10:11:51.205Z,50.23
2018-11-26T10:12:56.642Z,53.30
2018-11-26T10:14:02.468Z,52.70
2018-11-26T10:15:38.756Z,50.00
2018-11-26T10:16:44.201Z,39.20
2018-11-26T10:17:49.723Z,44.83
2018-11-26T10:18:55.140Z,54.00
2018-11-26T10:20:00.641Z,50.27
2018-11-26T10:21:06.376Z,46.33
2018-11-26T10:22:11.894Z,47.40
2018-11-26T10:23:17.338Z,42.00
2018-11-26T10:24:22.811Z,52.60
2018-11-26T10:25:28.323Z,46.33
2018-11-26T10:26:33.790Z,46.40
2018-11-26T10:27:39.303Z,48.50
2018-11-26T10:28:44.774Z,51.53
2018-11-26T10:29:50.339Z,46.80
2018-11-26T10:30:55.860Z,39.67
2018-11-26T10:32:01.597Z,50.80
2018-11-26T10:33:14.421Z,50.70
2018-11-26T10:34:13.267Z,47.30
2018-11-26T10:35:19.946Z,52.50
2018-11-26T10:36:25.478Z,53.43
2018-11-26T10:37:30.967Z,48.90
2018-11-26T10:38:36.457Z,49.57
2018-11-26T10:39:41.902Z,51.20
2018-11-26T10:40:47.468Z,51.00
2018-11-26T10:41:52.930Z,48.53
2018-11-26T10:42:58.568Z,53.10
2018-11-26T10:44:03.994Z,42.07
2018-11-26T10:45:13.244Z,49.50
2018-11-26T10:46:18.676Z,41.07
2018-11-26T10:47:24.174Z,49.60
2018-11-26T10:48:29.748Z,46.23
2018-11-26T10:49:35.178Z,48.30
2018-11-26T10:50:40.662Z,47.07
2018-11-26T10:51:46.175Z,44.97
2018-11-26T10:52:54.578Z,48.50
2018-11-26T10:54:00.059Z,46.10
2018-11-26T10:55:07.381Z,47.83
2018-11-26T10:56:12.886Z,46.90
2018-11-26T10:57:18.386Z,46.77
2018-11-26T10:58:23.834Z,40.23
2018-11-26T10:59:29.440Z,45.67
2018-11-26T11:00:41.715Z,44.40
2018-11-26T11:01:47.858Z,54.20
2018-11-26T11:02:53.495Z,52.63
2018-11-26T11:03:59.033Z,48.23
2018-11-26T11:05:04.596Z,47.93
2018-11-26T11:06:10.131Z,49.60
2018-11-26T11:07:15.678Z,49.60
2018-11-26T11:08:21.146Z,54.00
2018-11-26T11:09:26.615Z,57.70
2018-11-26T11:10:33.599Z,48.87
2018-11-26T11:11:39.296Z,57.97
2018-11-26T11:12:44.791Z,47.60
2018-11-26T11:13:50.191Z,48.27
2018-11-26T11:14:55.627Z,46.10
2018-11-26T11:16:01.162Z,42.73
2018-11-26T11:17:07.147Z,45.67
2018-11-26T11:18:12.856Z,47.00
2018-11-26T11:19:18.335Z,47.73
2018-11-26T11:20:26.428Z,46.10
2018-11-26T11:21:31.990Z,50.60
2018-11-26T11:22:37.502Z,44.97
2018-11-26T11:23:43.047Z,43.67
2018-11-26T11:24:48.574Z,43.60
2018-11-26T11:25:54.134Z,50.10
2018-11-26T11:26:59.638Z,51.83
2018-11-26T11:28:05.696Z,43.07
2018-11-26T11:29:11.176Z,48.43
2018-11-26T11:30:27.232Z,47.93
2018-11-26T11:31:32.693Z,51.47
2018-11-26T11:32:38.237Z,51.43
2018-11-26T11:33:43.685Z,48.00
2018-11-26T11:34:49.245Z,45.33
2018-11-26T11:35:54.883Z,44.77
2018-11-26T11:37:00.408Z,46.20
2018-11-26T11:38:06.080Z,47.77
2018-11-26T11:39:11.692Z,50.90
2018-11-26T11:40:22.368Z,41.27
2018-11-26T11:41:27.980Z,43.13
2018-11-26T11:42:33.403Z,49.73
2018-11-26T11:43:38.945Z,46.60
2018-11-26T11:44:44.412Z,44.63
2018-11-26T11:45:49.952Z,47.90
2018-11-26T11:46:55.791Z,45.40
2018-11-26T11:48:01.253Z,45.60
2018-11-26T11:49:07.036Z,47.00
2018-11-26T11:50:17.233Z,45.77
2018-11-26T11:51:22.758Z,43.33
2018-11-26T11:52:28.232Z,40.90
2018-11-26T11:53:33.791Z,52.30
2018-11-26T11:54:39.359Z,45.43
2018-11-26T11:55:45.079Z,44.07
2018-11-26T11:56:50.609Z,42.50
2018-11-26T11:57:56.148Z,48.27
2018-11-26T11:59:01.690Z,41.27
2018-11-26T12:00:25.455Z,39.03
2018-11-26T12:01:31.032Z,42.93
2018-11-26T12:02:39.598Z,41.27
2018-11-26T12:03:45.232Z,43.77
2018-11-26T12:04:50.898Z,50.10
2018-11-26T12:05:56.399Z,45.13
2018-11-26T12:07:01.848Z,47.07
2018-11-26T12:08:09.036Z,39.30
2018-11-26T12:09:14.507Z,41.87
2018-11-26T12:10:20.085Z,40.57
2018-11-26T12:11:25.598Z,49.63
2018-11-26T12:12:31.101Z,46.07
2018-11-26T12:13:36.744Z,42.03
2018-11-26T12:14:42.217Z,50.03
2018-11-26T12:15:52.186Z,46.67
2018-11-26T12:16:57.746Z,49.87
2018-11-26T12:18:03.328Z,45.47
2018-11-26T12:19:09.050Z,45.20
2018-11-26T12:20:15.711Z,48.97
2018-11-26T12:21:21.247Z,50.70
2018-11-26T12:22:26.705Z,41.00
2018-11-26T12:23:32.255Z,39.50
2018-11-26T12:24:37.701Z,45.33
2018-11-26T12:25:43.275Z,44.70
2018-11-26T12:26:48.716Z,50.23
2018-11-26T12:27:54.517Z,47.90
2018-11-26T12:28:59.980Z,41.53
2018-11-26T12:30:13.876Z,47.63
2018-11-26T12:31:19.441Z,38.80
2018-11-26T12:32:24.853Z,51.57
2018-11-26T12:33:30.345Z,53.83
2018-11-26T12:34:35.761Z,42.57
2018-11-26T12:35:41.494Z,45.57
2018-11-26T12:36:47.223Z,43.77
2018-11-26T12:37:52.939Z,52.07
2018-11-26T12:38:58.420Z,49.53
2018-11-26T12:40:04.144Z,45.17
2018-11-26T12:41:09.643Z,42.63
2018-11-26T12:42:15.242Z,37.87
2018-11-26T12:43:20.848Z,44.40
2018-11-26T12:44:37.518Z,38.10
2018-11-26T12:45:43.103Z,44.40
2018-11-26T12:46:48.616Z,41.90
2018-11-26T12:47:54.052Z,37.60
2018-11-26T12:48:59.610Z,35.50
2018-11-26T12:50:05.626Z,43.93
2018-11-26T12:51:11.200Z,35.83
2018-11-26T12:52:16.731Z,44.03
2018-11-26T12:53:22.176Z,38.37
2018-11-26T12:54:27.631Z,47.10
2018-11-26T12:55:33.311Z,47.70
2018-11-26T12:56:38.913Z,43.03
2018-11-26T12:57:45.784Z,36.20
2018-11-26T12:58:51.326Z,43.93
2018-11-26T12:59:56.747Z,42.87
2018-11-26T13:01:02.222Z,45.27
2018-11-26T13:02:08.924Z,45.90
2018-11-26T13:03:14.799Z,37.33
2018-11-26T13:04:20.261Z,40.70
2018-11-26T13:05:25.892Z,40.77
2018-11-26T13:06:33.935Z,42.40
2018-11-26T13:07:39.457Z,33.53
2018-11-26T13:08:44.960Z,34.60
2018-11-26T13:09:50.488Z,33.23
2018-11-26T13:10:55.998Z,39.80
2018-11-26T13:12:01.530Z,36.30
2018-11-26T13:13:08.739Z,41.10
2018-11-26T13:14:14.242Z,38.97
2018-11-26T13:15:23.342Z,35.33
2018-11-26T13:16:28.919Z,33.80
2018-11-26T13:17:34.464Z,35.07
2018-11-26T13:18:40.032Z,40.00
2018-11-26T13:19:45.500Z,42.13
2018-11-26T13:20:50.937Z,37.87
2018-11-26T13:21:56.611Z,36.33
2018-11-26T13:23:02.044Z,34.83
2018-11-26T13:24:07.656Z,33.77
2018-11-26T13:25:14.832Z,32.80
2018-11-26T13:26:20.356Z,43.00
2018-11-26T13:27:25.919Z,35.33
2018-11-26T13:28:31.454Z,34.37
2018-11-26T13:29:36.939Z,38.40
2018-11-26T13:30:45.493Z,37.70
2018-11-26T13:31:50.987Z,39.50
2018-11-26T13:32:58.473Z,38.80
2018-11-26T13:34:04.116Z,39.30
2018-11-26T13:35:12.059Z,38.03
2018-11-26T13:36:17.499Z,42.00
2018-11-26T13:37:23.073Z,38.30
2018-11-26T13:38:28.675Z,38.00
2018-11-26T13:39:34.207Z,37.47
2018-11-26T13:40:39.931Z,41.87
2018-11-26T13:41:45.399Z,36.60
2018-11-26T13:42:51.806Z,36.93
2018-11-26T13:43:57.331Z,33.67
2018-11-26T13:45:02.886Z,34.90
2018-11-26T13:46:08.399Z,33.47
2018-11-26T13:47:13.904Z,38.30
2018-11-26T13:48:20.404Z,33.30
2018-11-26T13:49:25.856Z,31.23
2018-11-26T13:50:34.766Z,37.13
2018-11-26T13:51:40.421Z,38.47
2018-11-26T13:52:45.915Z,36.00
2018-11-26T13:53:51.589Z,38.67
2018-11-26T13:54:57.124Z,33.57
2018-11-26T13:56:02.646Z,35.80
2018-11-26T13:57:08.085Z,35.97
2018-11-26T13:58:13.690Z,32.93
2018-11-26T13:59:19.180Z,37.07
2018-11-26T14:00:24.693Z,35.83
2018-11-26T14:01:30.171Z,30.93
2018-11-26T14:02:35.718Z,28.60